EWG33G LDRI-EDDS
Flight info
| Callsign | EWG33G |
|---|---|
| Flight time | 1h 0m |
| Altitude | 36000 |
| Route | ALIVO1W ALIVO DCT NIPEL DCT MORED DCT TITIG L173 MAH/N0393F240 L173 DODIL T127 TEKSI TEKSI1W |
| Aircraft | A319/M-SDE3FGHIRWY/LB1 |
Departure
| Time | 2026-05-06 21:34 |
|---|---|
| Airport | Rijeka Airport (LDRI) |
Arrival
| Time | 2026-05-06 22:34 |
|---|---|
| Airport | Stuttgart Airport (EDDS) |
| Time | Latitude | Longitude | Altitude | Speed | Heading |
|---|---|---|---|---|---|
| 2026-05-06 21:16 | 45.21954 | 14.57101 | 288 ft | 0 kts | 103° |
| 2026-05-06 21:30 | 45.21942 | 14.57107 | 290 ft | 4 kts | 181° |
| 2026-05-06 21:30 | 45.21924 | 14.57059 | 288 ft | 10 kts | 295° |
| 2026-05-06 21:31 | 45.21990 | 14.56985 | 288 ft | 14 kts | 324° |
| 2026-05-06 21:31 | 45.22026 | 14.56855 | 293 ft | 16 kts | 285° |
| 2026-05-06 21:31 | 45.22058 | 14.56693 | 290 ft | 18 kts | 285° |
| 2026-05-06 21:31 | 45.22153 | 14.56570 | 286 ft | 20 kts | 324° |
| 2026-05-06 21:32 | 45.22282 | 14.56434 | 280 ft | 25 kts | 323° |
| 2026-05-06 21:32 | 45.22573 | 14.56185 | 271 ft | 12 kts | 319° |
| 2026-05-06 21:32 | 45.22527 | 14.56180 | 271 ft | 5 kts | 143° |
| 2026-05-06 21:33 | 45.22525 | 14.56183 | 271 ft | 3 kts | 143° |
| 2026-05-06 21:33 | 45.22359 | 14.56355 | 278 ft | 59 kts | 144° |
| 2026-05-06 21:33 | 45.21872 | 14.56862 | 286 ft | 115 kts | 144° |
| 2026-05-06 21:33 | 45.21098 | 14.57655 | 449 ft | 147 kts | 144° |
| 2026-05-06 21:34 | 45.20282 | 14.58503 | 1039 ft | 147 kts | 144° |
| 2026-05-06 21:34 | 45.19457 | 14.59363 | 1646 ft | 150 kts | 147° |
| 2026-05-06 21:34 | 45.18557 | 14.60290 | 2002 ft | 171 kts | 148° |
| 2026-05-06 21:34 | 45.17525 | 14.61351 | 2352 ft | 196 kts | 148° |
| 2026-05-06 21:35 | 45.16353 | 14.62555 | 2837 ft | 220 kts | 148° |
| 2026-05-06 21:35 | 45.15060 | 14.63889 | 3475 ft | 237 kts | 148° |
| 2026-05-06 21:35 | 45.13704 | 14.65298 | 4341 ft | 245 kts | 148° |
| 2026-05-06 21:35 | 45.12306 | 14.66751 | 5214 ft | 254 kts | 148° |
| 2026-05-06 21:36 | 45.10862 | 14.68251 | 6102 ft | 260 kts | 149° |
| 2026-05-06 21:36 | 45.09394 | 14.69772 | 7017 ft | 264 kts | 149° |
| 2026-05-06 21:36 | 45.08389 | 14.70813 | 7637 ft | 266 kts | 149° |
| 2026-05-06 21:36 | 45.06889 | 14.72365 | 8557 ft | 269 kts | 150° |
| 2026-05-06 21:37 | 45.05420 | 14.74050 | 9474 ft | 279 kts | 137° |
| 2026-05-06 21:37 | 45.04515 | 14.76560 | 10290 ft | 300 kts | 107° |
| 2026-05-06 21:37 | 45.04581 | 14.79560 | 11053 ft | 315 kts | 75° |
| 2026-05-06 21:37 | 45.05689 | 14.82234 | 11808 ft | 321 kts | 43° |
| 2026-05-06 21:38 | 45.07583 | 14.83818 | 12569 ft | 317 kts | 10° |
| 2026-05-06 21:38 | 45.09705 | 14.83926 | 13317 ft | 308 kts | 344° |
| 2026-05-06 21:38 | 45.11818 | 14.83403 | 14091 ft | 310 kts | 343° |
| 2026-05-06 21:38 | 45.13951 | 14.82859 | 14789 ft | 313 kts | 343° |
| 2026-05-06 21:39 | 45.16109 | 14.82313 | 15484 ft | 317 kts | 343° |
| 2026-05-06 21:39 | 45.18325 | 14.81759 | 16106 ft | 321 kts | 344° |
| 2026-05-06 21:39 | 45.20537 | 14.81203 | 16674 ft | 325 kts | 346° |
| 2026-05-06 21:39 | 45.22766 | 14.80646 | 17418 ft | 326 kts | 346° |
| 2026-05-06 21:40 | 45.25024 | 14.80101 | 17728 ft | 344 kts | 346° |
| 2026-05-06 21:40 | 45.27460 | 14.79535 | 17878 ft | 365 kts | 346° |
| 2026-05-06 21:40 | 45.30037 | 14.78949 | 18044 ft | 383 kts | 347° |
| 2026-05-06 21:40 | 45.32706 | 14.78351 | 18424 ft | 392 kts | 347° |
| 2026-05-06 21:41 | 45.35409 | 14.77751 | 18949 ft | 395 kts | 347° |
| 2026-05-06 21:41 | 45.38137 | 14.77146 | 19525 ft | 398 kts | 347° |
| 2026-05-06 21:41 | 45.40882 | 14.76532 | 20094 ft | 401 kts | 347° |
| 2026-05-06 21:41 | 45.43641 | 14.75906 | 20703 ft | 403 kts | 347° |
| 2026-05-06 21:42 | 45.46418 | 14.75268 | 21267 ft | 406 kts | 347° |
| 2026-05-06 21:42 | 45.49216 | 14.74620 | 21775 ft | 409 kts | 347° |
| 2026-05-06 21:42 | 45.52001 | 14.73754 | 22224 ft | 410 kts | 338° |
| 2026-05-06 21:42 | 45.54647 | 14.72266 | 22750 ft | 408 kts | 329° |
| 2026-05-06 21:43 | 45.57187 | 14.70436 | 23311 ft | 410 kts | 328° |
| 2026-05-06 21:43 | 45.59743 | 14.68594 | 23809 ft | 413 kts | 328° |
| 2026-05-06 21:43 | 45.62319 | 14.66738 | 24264 ft | 416 kts | 328° |
| 2026-05-06 21:43 | 45.64916 | 14.64866 | 24690 ft | 419 kts | 328° |
| 2026-05-06 21:44 | 45.67527 | 14.62983 | 25103 ft | 422 kts | 328° |
| 2026-05-06 21:44 | 45.70157 | 14.61083 | 25531 ft | 424 kts | 328° |
| 2026-05-06 21:44 | 45.72798 | 14.59176 | 25959 ft | 427 kts | 328° |
| 2026-05-06 21:44 | 45.75457 | 14.57254 | 26391 ft | 429 kts | 328° |
| 2026-05-06 21:45 | 45.78122 | 14.55324 | 26820 ft | 431 kts | 327° |
| 2026-05-06 21:45 | 45.80804 | 14.53381 | 27228 ft | 433 kts | 327° |
| 2026-05-06 21:45 | 45.83503 | 14.51423 | 27660 ft | 436 kts | 327° |
| 2026-05-06 21:45 | 45.86215 | 14.49453 | 28068 ft | 438 kts | 327° |
| 2026-05-06 21:46 | 45.88939 | 14.47469 | 28454 ft | 441 kts | 327° |
| 2026-05-06 21:46 | 45.91680 | 14.45471 | 28865 ft | 443 kts | 327° |
| 2026-05-06 21:46 | 45.94439 | 14.43462 | 29270 ft | 446 kts | 327° |
| 2026-05-06 21:46 | 45.97172 | 14.41472 | 29667 ft | 448 kts | 327° |
| 2026-05-06 21:47 | 45.99961 | 14.39437 | 30037 ft | 450 kts | 327° |
| 2026-05-06 21:47 | 46.02765 | 14.37385 | 30345 ft | 454 kts | 326° |
| 2026-05-06 21:47 | 46.05587 | 14.35316 | 30614 ft | 457 kts | 326° |
| 2026-05-06 21:47 | 46.08431 | 14.33232 | 30896 ft | 460 kts | 327° |
| 2026-05-06 21:48 | 46.11287 | 14.31138 | 31206 ft | 462 kts | 327° |
| 2026-05-06 21:48 | 46.14153 | 14.29034 | 31510 ft | 463 kts | 327° |
| 2026-05-06 21:48 | 46.17025 | 14.26927 | 31895 ft | 463 kts | 327° |
| 2026-05-06 21:48 | 46.19889 | 14.24823 | 32351 ft | 461 kts | 326° |
| 2026-05-06 21:49 | 46.22745 | 14.22719 | 32797 ft | 460 kts | 326° |
| 2026-05-06 21:49 | 46.25586 | 14.20623 | 33236 ft | 459 kts | 326° |
| 2026-05-06 21:49 | 46.28427 | 14.18523 | 33637 ft | 458 kts | 326° |
| 2026-05-06 21:49 | 46.31257 | 14.16427 | 34047 ft | 456 kts | 326° |
| 2026-05-06 21:50 | 46.34074 | 14.14339 | 34483 ft | 455 kts | 326° |
| 2026-05-06 21:50 | 46.36888 | 14.12249 | 34810 ft | 455 kts | 326° |
| 2026-05-06 21:50 | 46.39703 | 14.10155 | 35142 ft | 455 kts | 326° |
| 2026-05-06 21:50 | 46.42512 | 14.08058 | 35442 ft | 454 kts | 327° |
| 2026-05-06 21:51 | 46.45321 | 14.05961 | 35771 ft | 454 kts | 327° |
| 2026-05-06 21:51 | 46.48131 | 14.03869 | 36110 ft | 453 kts | 327° |
| 2026-05-06 21:51 | 46.50940 | 14.01791 | 36400 ft | 453 kts | 327° |
| 2026-05-06 21:51 | 46.53767 | 13.99751 | 36720 ft | 454 kts | 328° |
| 2026-05-06 21:52 | 46.56608 | 13.97741 | 36990 ft | 454 kts | 329° |
| 2026-05-06 21:52 | 46.59454 | 13.95739 | 37271 ft | 454 kts | 329° |
| 2026-05-06 21:52 | 46.62297 | 13.93732 | 37563 ft | 454 kts | 329° |
| 2026-05-06 21:52 | 46.65134 | 13.91717 | 37842 ft | 454 kts | 329° |
| 2026-05-06 21:53 | 46.67969 | 13.89690 | 37952 ft | 454 kts | 329° |
| 2026-05-06 21:53 | 46.70803 | 13.87650 | 37928 ft | 454 kts | 329° |
| 2026-05-06 21:53 | 46.76429 | 13.83589 | 37934 ft | 454 kts | 329° |
| 2026-05-06 21:54 | 46.82127 | 13.79468 | 37940 ft | 454 kts | 329° |
| 2026-05-06 21:54 | 46.87787 | 13.75378 | 37936 ft | 454 kts | 329° |
| 2026-05-06 21:55 | 46.93419 | 13.71305 | 37939 ft | 455 kts | 329° |
| 2026-05-06 21:55 | 46.99090 | 13.67187 | 37960 ft | 455 kts | 328° |
| 2026-05-06 21:56 | 47.04758 | 13.63049 | 37956 ft | 456 kts | 328° |
| 2026-05-06 21:56 | 47.10436 | 13.58899 | 37927 ft | 456 kts | 328° |
| 2026-05-06 21:57 | 47.16121 | 13.54746 | 37926 ft | 457 kts | 328° |
| 2026-05-06 21:57 | 47.21813 | 13.50575 | 37929 ft | 457 kts | 328° |
| 2026-05-06 21:58 | 47.27506 | 13.46387 | 37918 ft | 458 kts | 328° |
| 2026-05-06 21:58 | 47.33209 | 13.42183 | 37917 ft | 459 kts | 328° |
| 2026-05-06 21:59 | 47.38919 | 13.37963 | 37947 ft | 459 kts | 328° |
| 2026-05-06 21:59 | 47.44630 | 13.33734 | 37938 ft | 459 kts | 328° |
| 2026-05-06 22:00 | 47.50345 | 13.29496 | 37934 ft | 459 kts | 328° |
| 2026-05-06 22:00 | 47.56056 | 13.25246 | 37942 ft | 459 kts | 328° |
| 2026-05-06 22:01 | 47.61758 | 13.20990 | 37939 ft | 459 kts | 328° |
| 2026-05-06 22:01 | 47.67422 | 13.16747 | 37943 ft | 459 kts | 328° |
| 2026-05-06 22:02 | 47.73129 | 13.12465 | 37976 ft | 460 kts | 328° |
| 2026-05-06 22:02 | 47.78850 | 13.08176 | 37943 ft | 462 kts | 328° |
| 2026-05-06 22:03 | 47.84499 | 13.03666 | 37930 ft | 457 kts | 320° |
| 2026-05-06 22:03 | 47.89094 | 12.97349 | 37929 ft | 445 kts | 302° |
| 2026-05-06 22:04 | 47.92401 | 12.89683 | 37926 ft | 439 kts | 295° |
| 2026-05-06 22:04 | 47.95544 | 12.81863 | 37920 ft | 440 kts | 295° |
| 2026-05-06 22:05 | 47.98694 | 12.74012 | 37928 ft | 441 kts | 295° |
| 2026-05-06 22:05 | 48.01836 | 12.66123 | 37921 ft | 442 kts | 295° |
| 2026-05-06 22:06 | 48.04980 | 12.58201 | 37922 ft | 443 kts | 294° |
| 2026-05-06 22:06 | 48.07334 | 12.49841 | 37920 ft | 435 kts | 283° |
| 2026-05-06 22:07 | 48.09342 | 12.41310 | 37920 ft | 435 kts | 283° |
| 2026-05-06 22:07 | 48.11352 | 12.32766 | 37921 ft | 436 kts | 283° |
| 2026-05-06 22:08 | 48.13354 | 12.24200 | 37805 ft | 436 kts | 283° |
| 2026-05-06 22:08 | 48.14352 | 12.19921 | 37523 ft | 435 kts | 283° |
| 2026-05-06 22:08 | 48.15345 | 12.15644 | 37253 ft | 434 kts | 282° |
| 2026-05-06 22:09 | 48.16080 | 12.11308 | 37004 ft | 426 kts | 274° |
| 2026-05-06 22:09 | 48.16419 | 12.06928 | 36726 ft | 423 kts | 270° |
| 2026-05-06 22:09 | 48.16697 | 12.02548 | 36494 ft | 423 kts | 270° |
| 2026-05-06 22:09 | 48.16978 | 11.98155 | 36238 ft | 424 kts | 270° |
| 2026-05-06 22:10 | 48.17260 | 11.93764 | 35984 ft | 424 kts | 270° |
| 2026-05-06 22:10 | 48.17544 | 11.89369 | 35732 ft | 424 kts | 270° |
| 2026-05-06 22:10 | 48.17828 | 11.84975 | 35481 ft | 424 kts | 270° |
| 2026-05-06 22:10 | 48.18222 | 11.80587 | 35101 ft | 427 kts | 276° |
| 2026-05-06 22:11 | 48.18917 | 11.76214 | 34287 ft | 435 kts | 278° |
| 2026-05-06 22:11 | 48.19652 | 11.71812 | 33680 ft | 434 kts | 279° |
| 2026-05-06 22:11 | 48.20388 | 11.67467 | 33210 ft | 428 kts | 279° |
| 2026-05-06 22:11 | 48.21114 | 11.63164 | 32713 ft | 423 kts | 279° |
| 2026-05-06 22:12 | 48.21826 | 11.58901 | 32229 ft | 420 kts | 278° |
| 2026-05-06 22:12 | 48.22526 | 11.54675 | 31730 ft | 416 kts | 278° |
| 2026-05-06 22:12 | 48.23214 | 11.50484 | 31238 ft | 412 kts | 278° |
| 2026-05-06 22:12 | 48.23893 | 11.46338 | 30756 ft | 407 kts | 278° |
| 2026-05-06 22:13 | 48.24562 | 11.42231 | 30277 ft | 403 kts | 278° |
| 2026-05-06 22:13 | 48.25222 | 11.38160 | 29768 ft | 400 kts | 278° |
| 2026-05-06 22:13 | 48.26034 | 11.34177 | 29278 ft | 400 kts | 286° |
| 2026-05-06 22:13 | 48.27298 | 11.30452 | 28820 ft | 403 kts | 296° |
| 2026-05-06 22:14 | 48.28997 | 11.27093 | 28365 ft | 406 kts | 307° |
| 2026-05-06 22:14 | 48.30952 | 11.24051 | 27895 ft | 403 kts | 308° |
| 2026-05-06 22:14 | 48.32901 | 11.21049 | 27472 ft | 400 kts | 308° |
| 2026-05-06 22:14 | 48.34839 | 11.18062 | 27011 ft | 398 kts | 309° |
| 2026-05-06 22:15 | 48.36765 | 11.15087 | 26584 ft | 395 kts | 309° |
| 2026-05-06 22:15 | 48.38677 | 11.12128 | 26156 ft | 393 kts | 309° |
| 2026-05-06 22:15 | 48.40549 | 11.09220 | 25730 ft | 391 kts | 309° |
| 2026-05-06 22:15 | 48.42433 | 11.06283 | 25330 ft | 389 kts | 309° |
| 2026-05-06 22:16 | 48.44306 | 11.03358 | 24912 ft | 387 kts | 310° |
| 2026-05-06 22:16 | 48.46167 | 11.00450 | 24494 ft | 385 kts | 310° |
| 2026-05-06 22:16 | 48.48017 | 10.97557 | 24077 ft | 383 kts | 310° |
| 2026-05-06 22:16 | 48.49862 | 10.94668 | 23653 ft | 381 kts | 310° |
| 2026-05-06 22:17 | 48.51686 | 10.91785 | 23177 ft | 379 kts | 310° |
| 2026-05-06 22:17 | 48.53487 | 10.88912 | 22742 ft | 375 kts | 310° |
| 2026-05-06 22:17 | 48.55266 | 10.86056 | 22328 ft | 372 kts | 310° |
| 2026-05-06 22:17 | 48.57027 | 10.83222 | 21893 ft | 369 kts | 309° |
| 2026-05-06 22:18 | 48.58775 | 10.80408 | 21443 ft | 366 kts | 309° |
| 2026-05-06 22:18 | 48.60513 | 10.77624 | 21020 ft | 363 kts | 309° |
| 2026-05-06 22:18 | 48.62249 | 10.74864 | 20576 ft | 361 kts | 310° |
| 2026-05-06 22:18 | 48.63978 | 10.72126 | 20141 ft | 359 kts | 310° |
| 2026-05-06 22:19 | 48.65697 | 10.69404 | 19703 ft | 357 kts | 309° |
| 2026-05-06 22:19 | 48.67406 | 10.66693 | 19257 ft | 355 kts | 309° |
| 2026-05-06 22:19 | 48.69103 | 10.63993 | 18808 ft | 354 kts | 309° |
| 2026-05-06 22:19 | 48.70736 | 10.61237 | 18358 ft | 349 kts | 302° |
| 2026-05-06 22:20 | 48.71928 | 10.58106 | 17886 ft | 340 kts | 288° |
| 2026-05-06 22:20 | 48.72592 | 10.54730 | 17457 ft | 330 kts | 275° |
| 2026-05-06 22:20 | 48.72739 | 10.51318 | 17047 ft | 321 kts | 263° |
| 2026-05-06 22:20 | 48.72493 | 10.47985 | 16644 ft | 316 kts | 260° |
| 2026-05-06 22:21 | 48.72220 | 10.44698 | 16245 ft | 313 kts | 260° |
| 2026-05-06 22:21 | 48.71954 | 10.41440 | 15850 ft | 310 kts | 260° |
| 2026-05-06 22:21 | 48.71691 | 10.38216 | 15455 ft | 307 kts | 261° |
| 2026-05-06 22:21 | 48.71431 | 10.35024 | 15066 ft | 304 kts | 261° |
| 2026-05-06 22:22 | 48.71170 | 10.31858 | 14680 ft | 302 kts | 261° |
| 2026-05-06 22:22 | 48.70909 | 10.28710 | 14290 ft | 300 kts | 261° |
| 2026-05-06 22:22 | 48.70648 | 10.25586 | 13908 ft | 298 kts | 261° |
| 2026-05-06 22:22 | 48.70388 | 10.22481 | 13503 ft | 296 kts | 261° |
| 2026-05-06 22:23 | 48.70212 | 10.20398 | 13231 ft | 295 kts | 261° |
| 2026-05-06 22:23 | 48.69953 | 10.17339 | 12852 ft | 292 kts | 261° |
| 2026-05-06 22:23 | 48.69697 | 10.14346 | 12482 ft | 289 kts | 261° |
| 2026-05-06 22:23 | 48.69442 | 10.11348 | 12099 ft | 286 kts | 261° |
| 2026-05-06 22:24 | 48.69194 | 10.08337 | 11693 ft | 289 kts | 263° |
| 2026-05-06 22:24 | 48.69239 | 10.05294 | 11294 ft | 290 kts | 275° |
| 2026-05-06 22:24 | 48.69598 | 10.02295 | 10891 ft | 289 kts | 278° |
| 2026-05-06 22:24 | 48.69964 | 9.99307 | 10433 ft | 290 kts | 278° |
| 2026-05-06 22:25 | 48.70329 | 9.96296 | 9947 ft | 292 kts | 278° |
| 2026-05-06 22:25 | 48.70692 | 9.93268 | 9417 ft | 293 kts | 278° |
| 2026-05-06 22:25 | 48.71054 | 9.90227 | 8890 ft | 294 kts | 278° |
| 2026-05-06 22:25 | 48.71414 | 9.87180 | 8370 ft | 294 kts | 278° |
| 2026-05-06 22:26 | 48.71774 | 9.84126 | 7904 ft | 293 kts | 278° |
| 2026-05-06 22:26 | 48.72129 | 9.81135 | 7635 ft | 285 kts | 278° |
| 2026-05-06 22:26 | 48.72473 | 9.78223 | 7399 ft | 277 kts | 278° |
| 2026-05-06 22:26 | 48.72808 | 9.75384 | 7153 ft | 271 kts | 278° |
| 2026-05-06 22:27 | 48.73133 | 9.72605 | 6905 ft | 265 kts | 278° |
| 2026-05-06 22:27 | 48.73449 | 9.69889 | 6658 ft | 260 kts | 278° |
| 2026-05-06 22:27 | 48.73759 | 9.67215 | 6410 ft | 255 kts | 278° |
| 2026-05-06 22:27 | 48.74064 | 9.64594 | 6161 ft | 251 kts | 279° |
| 2026-05-06 22:28 | 48.74366 | 9.62013 | 5895 ft | 247 kts | 279° |
| 2026-05-06 22:28 | 48.74662 | 9.59475 | 5636 ft | 243 kts | 279° |
| 2026-05-06 22:28 | 48.74950 | 9.57006 | 5377 ft | 233 kts | 279° |
| 2026-05-06 22:28 | 48.75050 | 9.54664 | 5252 ft | 213 kts | 261° |
| 2026-05-06 22:29 | 48.74692 | 9.52553 | 5036 ft | 203 kts | 255° |
| 2026-05-06 22:29 | 48.74310 | 9.50532 | 4777 ft | 195 kts | 255° |
| 2026-05-06 22:29 | 48.73953 | 9.48629 | 4555 ft | 180 kts | 255° |
| 2026-05-06 22:29 | 48.73624 | 9.46866 | 4291 ft | 169 kts | 255° |
| 2026-05-06 22:30 | 48.73311 | 9.45194 | 4060 ft | 162 kts | 255° |
| 2026-05-06 22:30 | 48.73010 | 9.43582 | 3836 ft | 160 kts | 256° |
| 2026-05-06 22:30 | 48.72709 | 9.41971 | 3630 ft | 158 kts | 255° |
| 2026-05-06 22:30 | 48.72409 | 9.40373 | 3422 ft | 157 kts | 255° |
| 2026-05-06 22:31 | 48.72112 | 9.38786 | 3212 ft | 156 kts | 255° |
| 2026-05-06 22:31 | 48.71816 | 9.37211 | 3019 ft | 155 kts | 254° |
| 2026-05-06 22:31 | 48.71520 | 9.35632 | 2812 ft | 156 kts | 254° |
| 2026-05-06 22:31 | 48.71235 | 9.34117 | 2593 ft | 144 kts | 253° |
| 2026-05-06 22:32 | 48.70969 | 9.32699 | 2415 ft | 137 kts | 252° |
| 2026-05-06 22:32 | 48.70709 | 9.31321 | 2213 ft | 137 kts | 252° |
| 2026-05-06 22:32 | 48.70448 | 9.29937 | 1990 ft | 138 kts | 253° |
| 2026-05-06 22:32 | 48.70180 | 9.28542 | 1784 ft | 138 kts | 254° |
| 2026-05-06 22:33 | 48.69913 | 9.27140 | 1623 ft | 139 kts | 253° |
| 2026-05-06 22:33 | 48.69653 | 9.25737 | 1441 ft | 138 kts | 251° |
| 2026-05-06 22:33 | 48.69394 | 9.24350 | 1271 ft | 136 kts | 252° |
| 2026-05-06 22:33 | 48.69142 | 9.23035 | 1220 ft | 118 kts | 253° |
| 2026-05-06 22:34 | 48.68951 | 9.22010 | 1244 ft | 78 kts | 253° |
| 2026-05-06 22:34 | 48.68848 | 9.21471 | 1254 ft | 26 kts | 253° |
| 2026-05-06 22:34 | 48.68811 | 9.21231 | 1259 ft | 23 kts | 265° |
| 2026-05-06 22:34 | 48.68834 | 9.20988 | 1269 ft | 24 kts | 282° |
| 2026-05-06 22:35 | 48.68869 | 9.20761 | 1273 ft | 20 kts | 284° |
| 2026-05-06 22:35 | 48.68852 | 9.20560 | 1278 ft | 20 kts | 254° |
| 2026-05-06 22:35 | 48.68814 | 9.20358 | 1285 ft | 20 kts | 253° |
| 2026-05-06 22:35 | 48.68773 | 9.20152 | 1288 ft | 21 kts | 253° |
| 2026-05-06 22:36 | 48.68790 | 9.19954 | 1295 ft | 19 kts | 312° |
| 2026-05-06 22:36 | 48.68887 | 9.19846 | 1303 ft | 16 kts | 294° |
| 2026-05-06 22:36 | 48.68866 | 9.19695 | 1308 ft | 15 kts | 253° |
| 2026-05-06 22:36 | 48.68843 | 9.19581 | 1310 ft | 4 kts | 253° |
| 2026-05-06 22:37 | 48.68850 | 9.19547 | 1311 ft | 3 kts | 308° |
| 2026-05-06 22:37 | 48.68875 | 9.19529 | 1313 ft | 5 kts | 345° |
| 2026-05-06 22:37 | 48.68907 | 9.19516 | 1315 ft | 3 kts | 343° |
| 2026-05-06 22:37 | 48.68916 | 9.19512 | 1315 ft | 0 kts | 344° |